Time;durP1;ratioP1;P1;durP2;ratioP2;P2;SDS_P1;SDS_P2;PMS_P1;PMS_P2;Temp;Humidity;BMP_temperature;BMP_pressure;BME280_temperature;BME280_humidity;BME280_pressure;Samples;Min_cycle;Max_cycle;Signal;HPM_P1;HPM_P2
2022/07/17 00:02:23;;;;;;;10.43;2.70;;;12.20;85.40;;;;;;5077987;28;20190;-87
2022/07/17 00:04:48;;;;;;;13.33;2.60;;;12.10;85.30;;;;;;5077801;28;20273;-87
2022/07/17 00:07:14;;;;;;;10.57;2.47;;;12.20;85.30;;;;;;5096372;28;20171;-86
2022/07/17 00:09:40;;;;;;;13.83;3.03;;;12.20;85.10;;;;;;5077556;28;20201;-87
2022/07/17 00:12:06;;;;;;;9.10;2.20;;;12.20;84.90;;;;;;5095628;28;20202;-88
2022/07/17 00:14:31;;;;;;;7.23;2.03;;;12.20;84.50;;;;;;5095719;28;20167;-87
2022/07/17 00:16:58;;;;;;;11.33;2.50;;;12.20;83.90;;;;;;5077832;28;20179;-87
2022/07/17 00:19:24;;;;;;;10.40;2.43;;;12.10;83.90;;;;;;5095474;28;20201;-87
2022/07/17 00:21:50;;;;;;;10.20;2.40;;;12.00;84.30;;;;;;5077281;28;20278;-87
2022/07/17 00:24:19;;;;;;;7.77;2.37;;;12.00;84.30;;;;;;5095518;28;20198;-87
2022/07/17 00:26:49;;;;;;;4.73;2.03;;;11.90;84.40;;;;;;5077562;28;20660;-87
2022/07/17 00:29:15;;;;;;;9.47;3.33;;;11.90;84.70;;;;;;5095491;28;20605;-87
2022/07/17 00:31:41;;;;;;;18.53;7.67;;;11.70;84.70;;;;;;5077601;28;20191;-86
2022/07/17 00:34:07;;;;;;;9.70;3.10;;;11.70;85.10;;;;;;5095349;28;20530;-86
2022/07/17 00:36:33;;;;;;;11.47;3.87;;;11.70;85.00;;;;;;5095598;28;20175;-88
2022/07/17 00:38:59;;;;;;;11.70;3.33;;;11.70;85.60;;;;;;5077575;28;20181;-88
2022/07/17 00:41:24;;;;;;;14.27;3.30;;;11.60;86.10;;;;;;5077678;28;20289;-88
2022/07/17 00:43:50;;;;;;;12.30;2.90;;;11.60;86.60;;;;;;5095836;28;20178;-88
2022/07/17 00:46:15;;;;;;;10.33;3.13;;;11.70;86.60;;;;;;5077658;28;20174;-89
2022/07/17 00:48:41;;;;;;;13.20;3.43;;;11.70;86.40;;;;;;5095546;28;20175;-90
2022/07/17 00:51:08;;;;;;;11.33;3.10;;;11.80;86.00;;;;;;5076640;28;20189;-90
2022/07/17 00:53:34;;;;;;;10.07;2.53;;;11.80;85.90;;;;;;5076466;28;20198;-90
2022/07/17 00:56:05;;;;;;;8.17;2.93;;;11.70;85.40;;;;;;5094654;28;20293;-90
2022/07/17 00:58:35;;;;;;;7.70;3.23;;;11.70;85.60;;;;;;5076517;28;20530;-90
2022/07/17 01:01:08;;;;;;;8.97;2.73;;;11.60;86.10;;;;;;5076357;28;20206;-90
2022/07/17 01:03:34;;;;;;;13.37;2.77;;;11.70;86.40;;;;;;5076537;28;20198;-90
2022/07/17 01:06:00;;;;;;;11.70;3.07;;;11.80;86.30;;;;;;5076288;28;20253;-90
2022/07/17 01:08:26;;;;;;;12.67;3.20;;;11.80;86.40;;;;;;5076219;28;20186;-90
2022/07/17 01:10:52;;;;;;;9.30;3.30;;;12.00;86.50;;;;;;5094397;28;20540;-90
2022/07/17 01:13:18;;;;;;;9.40;2.50;;;12.00;86.70;;;;;;5094286;28;20194;-90
2022/07/17 01:15:44;;;;;;;12.87;3.10;;;12.10;86.90;;;;;;5076001;28;20652;-90
2022/07/17 01:18:12;;;;;;;9.47;2.93;;;12.10;87.30;;;;;;5076186;28;20262;-89
2022/07/17 01:20:40;;;;;;;16.57;3.50;;;12.10;87.60;;;;;;5094061;28;20198;-90
2022/07/17 01:23:06;;;;;;;18.03;3.73;;;12.20;87.70;;;;;;5075936;28;20251;-90
2022/07/17 01:25:32;;;;;;;12.93;4.33;;;12.20;87.80;;;;;;5094106;28;20621;-90
2022/07/17 01:27:59;;;;;;;11.63;3.33;;;12.30;87.60;;;;;;5075869;28;20167;-90
2022/07/17 01:30:24;;;;;;;11.40;3.07;;;12.30;87.40;;;;;;5075943;28;20185;-89
2022/07/17 01:32:50;;;;;;;14.30;3.77;;;12.30;87.40;;;;;;5075774;28;20194;-89
2022/07/17 01:35:16;;;;;;;10.80;3.20;;;12.30;87.30;;;;;;5075782;28;20183;-90
2022/07/17 01:37:43;;;;;;;13.43;2.83;;;12.40;87.60;;;;;;5075770;28;20185;-90
2022/07/17 01:40:12;;;;;;;14.93;4.13;;;12.40;87.60;;;;;;5075748;28;20222;-90
2022/07/17 01:42:39;;;;;;;13.80;3.37;;;12.40;87.60;;;;;;5075750;28;20202;-90
2022/07/17 01:45:05;;;;;;;8.77;3.37;;;12.40;87.50;;;;;;5093707;28;20194;-90
2022/07/17 01:47:31;;;;;;;15.27;3.50;;;12.50;87.50;;;;;;5075249;28;20175;-90
2022/07/17 01:49:57;;;;;;;10.80;3.53;;;12.40;87.50;;;;;;5075581;28;20232;-90
2022/07/17 01:52:24;;;;;;;15.43;3.93;;;12.40;87.60;;;;;;5075530;28;20198;-89
2022/07/17 01:54:51;;;;;;;10.93;3.37;;;12.50;87.60;;;;;;5093594;28;20175;-90
2022/07/17 01:57:17;;;;;;;10.53;3.00;;;12.50;87.40;;;;;;5093444;28;20221;-90
2022/07/17 01:59:42;;;;;;;14.83;3.27;;;12.50;87.40;;;;;;5075452;28;20698;-89
2022/07/17 02:02:09;;;;;;;21.40;3.77;;;12.50;87.20;;;;;;5093703;28;20187;-90
2022/07/17 02:04:36;;;;;;;13.67;3.10;;;12.50;87.00;;;;;;5075539;28;20178;-89
2022/07/17 02:07:03;;;;;;;15.97;4.10;;;12.50;87.10;;;;;;5093431;28;20213;-90
2022/07/17 02:09:29;;;;;;;15.07;2.83;;;12.60;87.00;;;;;;5075479;28;20181;-90
2022/07/17 02:11:54;;;;;;;15.07;3.10;;;12.50;86.80;;;;;;5075300;28;20277;-89
2022/07/17 02:14:20;;;;;;;11.93;3.10;;;12.50;86.90;;;;;;5075346;28;20641;-90
2022/07/17 02:16:46;;;;;;;11.13;3.20;;;12.50;86.90;;;;;;5075379;28;20170;-90
2022/07/17 02:19:12;;;;;;;12.57;2.77;;;12.50;87.00;;;;;;5075193;28;20186;-90
2022/07/17 02:21:38;;;;;;;10.47;3.27;;;12.50;87.00;;;;;;5093183;28;20189;-89
2022/07/17 02:24:04;;;;;;;13.93;2.90;;;12.50;86.80;;;;;;5075221;28;20640;-90
2022/07/17 02:26:30;;;;;;;11.40;2.87;;;12.50;86.60;;;;;;5075157;28;20178;-89
2022/07/17 02:28:55;;;;;;;12.37;3.17;;;12.50;86.50;;;;;;5075226;28;20171;-89
2022/07/17 02:31:21;;;;;;;18.13;4.77;;;12.50;86.40;;;;;;5093079;28;20244;-90
2022/07/17 02:33:46;;;;;;;11.03;3.50;;;12.50;86.40;;;;;;5076065;28;20539;-90
2022/07/17 02:36:12;;;;;;;15.53;3.30;;;12.50;86.30;;;;;;5075186;28;20237;-89
2022/07/17 02:38:37;;;;;;;10.83;2.57;;;12.40;86.40;;;;;;5075119;28;20178;-90
2022/07/17 02:41:03;;;;;;;13.97;3.20;;;12.30;86.60;;;;;;5075047;28;20202;-90
2022/07/17 02:43:29;;;;;;;15.73;3.30;;;12.40;86.60;;;;;;5074921;28;20225;-89
2022/07/17 02:45:54;;;;;;;16.73;3.47;;;12.30;86.60;;;;;;5093426;28;20532;-89
2022/07/17 02:48:20;;;;;;;14.20;3.67;;;12.30;86.70;;;;;;5093423;28;20167;-90
2022/07/17 02:50:46;;;;;;;11.27;2.97;;;12.40;86.70;;;;;;5074824;28;20720;-90
2022/07/17 02:53:11;;;;;;;10.60;3.17;;;12.50;86.60;;;;;;5074907;28;20202;-89
2022/07/17 02:55:37;;;;;;;8.97;2.70;;;12.50;86.40;;;;;;5074957;28;20171;-90
2022/07/17 02:58:02;;;;;;;8.40;2.97;;;12.40;86.30;;;;;;5075430;28;20220;-90
2022/07/17 03:00:28;;;;;;;13.60;2.90;;;12.40;86.10;;;;;;5096882;28;20722;-90
2022/07/17 03:02:55;;;;;;;9.60;2.90;;;12.40;86.00;;;;;;5078574;28;20236;-90
2022/07/17 03:05:20;;;;;;;7.37;2.97;;;12.30;85.80;;;;;;5078651;28;20258;-90
2022/07/17 03:07:46;;;;;;;11.53;3.23;;;12.30;85.90;;;;;;5078563;28;20213;-90
2022/07/17 03:10:12;;;;;;;7.43;2.97;;;12.30;86.00;;;;;;5078537;28;20185;-89
2022/07/17 03:12:38;;;;;;;10.70;3.13;;;12.30;86.00;;;;;;5078688;28;20202;-90
2022/07/17 03:15:05;;;;;;;12.40;3.43;;;12.30;86.20;;;;;;5078824;28;20541;-89
2022/07/17 03:17:31;;;;;;;12.63;3.57;;;12.40;86.30;;;;;;5096804;28;20170;-89
2022/07/17 03:19:56;;;;;;;12.63;3.07;;;12.40;86.90;;;;;;5078238;28;20206;-90
2022/07/17 03:22:22;;;;;;;12.90;3.67;;;12.40;87.20;;;;;;5078308;28;20218;-89
2022/07/17 03:24:48;;;;;;;16.50;3.60;;;12.40;87.50;;;;;;5078220;28;20522;-90
2022/07/17 03:27:13;;;;;;;13.10;3.27;;;12.40;87.50;;;;;;5078357;28;20538;-89
2022/07/17 03:29:39;;;;;;;19.17;4.67;;;12.50;87.50;;;;;;5078073;28;20175;-90
2022/07/17 03:32:05;;;;;;;7.47;2.90;;;12.50;87.40;;;;;;5078111;28;20194;-90
2022/07/17 03:34:30;;;;;;;10.20;3.27;;;12.50;87.20;;;;;;5078147;28;20186;-89
2022/07/17 03:36:56;;;;;;;13.27;3.43;;;12.60;87.20;;;;;;5078043;28;20210;-90
2022/07/17 03:39:21;;;;;;;9.27;3.27;;;12.70;87.20;;;;;;5077942;28;20670;-89
2022/07/17 03:41:47;;;;;;;17.20;3.40;;;12.70;87.10;;;;;;5077838;28;20213;-89
2022/07/17 03:44:12;;;;;;;8.80;3.37;;;12.80;87.10;;;;;;5077872;28;20648;-90
2022/07/17 03:46:38;;;;;;;9.10;2.57;;;12.80;86.80;;;;;;5096183;28;20167;-90
2022/07/17 03:49:04;;;;;;;9.87;2.97;;;12.80;86.70;;;;;;5078215;28;20670;-89
2022/07/17 03:51:29;;;;;;;16.03;3.33;;;12.80;86.50;;;;;;5077817;28;20550;-89
2022/07/17 03:53:55;;;;;;;12.67;3.30;;;12.90;86.50;;;;;;5077795;28;20182;-89
2022/07/17 03:56:20;;;;;;;7.10;2.80;;;12.90;86.40;;;;;;5077615;28;20205;-90
2022/07/17 03:58:46;;;;;;;9.57;3.03;;;12.90;86.20;;;;;;5095560;28;20211;-89
2022/07/17 04:01:11;;;;;;;9.73;2.80;;;13.00;86.10;;;;;;5095740;28;20532;-89
2022/07/17 04:03:37;;;;;;;11.70;2.73;;;12.90;85.80;;;;;;5077612;28;20204;-89
2022/07/17 04:06:03;;;;;;;14.60;3.33;;;13.00;85.70;;;;;;5077535;28;20671;-90
2022/07/17 04:08:28;;;;;;;9.20;2.70;;;13.00;85.70;;;;;;5077206;28;20544;-89
2022/07/17 04:10:54;;;;;;;12.30;4.57;;;13.10;85.60;;;;;;5077486;28;20220;-90
2022/07/17 04:13:19;;;;;;;7.87;3.30;;;13.10;85.50;;;;;;5095267;28;20198;-89
2022/07/17 04:15:57;;;;;;;7.77;2.57;;;13.10;85.60;;;;;;5077384;28;20210;-89
2022/07/17 04:18:25;;;;;;;13.70;3.53;;;13.20;85.80;;;;;;5077322;28;20166;-89
2022/07/17 04:20:51;;;;;;;12.47;3.63;;;13.20;85.70;;;;;;5077156;28;20226;-89
2022/07/17 04:23:17;;;;;;;9.47;3.43;;;13.20;85.30;;;;;;5077181;28;20190;-89
2022/07/17 04:25:44;;;;;;;13.10;3.10;;;13.20;85.10;;;;;;5095318;28;20537;-90
2022/07/17 04:28:10;;;;;;;13.10;3.77;;;13.20;85.20;;;;;;5077014;28;20544;-90
2022/07/17 04:30:36;;;;;;;9.47;2.70;;;13.30;85.10;;;;;;5076935;28;20188;-90
2022/07/17 04:33:02;;;;;;;10.10;3.37;;;13.30;85.10;;;;;;5076732;28;20194;-90
2022/07/17 04:35:28;;;;;;;8.73;2.50;;;13.30;85.30;;;;;;5094965;28;20549;-89
2022/07/17 04:37:53;;;;;;;6.90;3.07;;;13.40;85.10;;;;;;5076869;28;20270;-89
2022/07/17 04:40:19;;;;;;;10.80;3.27;;;13.40;84.90;;;;;;5094803;28;20247;-90
2022/07/17 04:42:45;;;;;;;8.73;2.70;;;13.50;84.50;;;;;;5076671;28;20247;-90
2022/07/17 04:45:11;;;;;;;14.43;3.17;;;13.50;84.40;;;;;;5076807;28;20644;-90
2022/07/17 04:47:36;;;;;;;9.83;2.90;;;13.60;83.90;;;;;;5094856;28;20163;-90
2022/07/17 04:50:02;;;;;;;10.10;3.00;;;13.60;83.90;;;;;;5076632;28;20185;-89
2022/07/17 04:52:28;;;;;;;6.37;2.20;;;13.60;83.50;;;;;;5076581;28;20195;-89
2022/07/17 04:54:54;;;;;;;9.83;2.70;;;13.60;83.30;;;;;;5076503;28;20178;-89
2022/07/17 04:57:19;;;;;;;9.17;3.43;;;13.60;83.30;;;;;;5076488;28;20183;-90
2022/07/17 04:59:45;;;;;;;10.07;2.77;;;13.60;83.30;;;;;;5076500;28;20210;-90
2022/07/17 05:02:10;;;;;;;13.17;3.93;;;13.70;83.30;;;;;;5076964;28;20201;-89
2022/07/17 05:04:36;;;;;;;10.80;3.00;;;13.70;83.10;;;;;;5076538;28;20181;-89
2022/07/17 05:07:02;;;;;;;15.17;3.23;;;13.70;82.90;;;;;;5076648;28;20206;-90
2022/07/17 05:09:27;;;;;;;12.37;4.10;;;13.70;83.30;;;;;;5094443;28;20194;-89
2022/07/17 05:11:53;;;;;;;15.97;3.20;;;13.80;83.40;;;;;;5076120;28;20702;-90
2022/07/17 05:14:18;;;;;;;12.40;3.13;;;13.80;83.40;;;;;;5076218;28;20216;-90
2022/07/17 05:16:44;;;;;;;14.57;3.17;;;13.80;83.30;;;;;;5076155;28;20174;-90
2022/07/17 05:19:09;;;;;;;6.93;2.63;;;13.80;83.20;;;;;;5076189;28;20181;-90
2022/07/17 05:21:35;;;;;;;7.13;2.40;;;13.90;83.20;;;;;;5093264;28;20210;-90
2022/07/17 05:24:01;;;;;;;13.43;2.83;;;13.90;82.80;;;;;;5075978;28;20206;-89
2022/07/17 05:26:26;;;;;;;12.07;2.90;;;14.00;82.80;;;;;;5094271;28;20574;-90
2022/07/17 05:28:52;;;;;;;12.07;3.17;;;14.10;82.70;;;;;;5076084;28;20197;-89
2022/07/17 05:31:18;;;;;;;9.93;2.73;;;14.10;82.70;;;;;;5075884;28;20185;-90
2022/07/17 05:33:43;;;;;;;5.00;1.90;;;14.20;82.50;;;;;;5076192;28;20179;-90
2022/07/17 05:36:09;;;;;;;13.20;3.30;;;14.10;82.30;;;;;;5076625;28;20257;-90
2022/07/17 05:38:35;;;;;;;7.90;2.43;;;14.20;82.20;;;;;;5076542;28;20175;-89
2022/07/17 05:41:01;;;;;;;11.27;3.10;;;14.10;81.90;;;;;;5075894;28;20202;-90
2022/07/17 05:43:27;;;;;;;10.43;2.77;;;14.20;81.90;;;;;;5075986;28;20194;-90
2022/07/17 05:45:54;;;;;;;7.37;2.67;;;14.10;81.70;;;;;;5075950;28;20223;-90
2022/07/17 05:48:20;;;;;;;9.37;3.17;;;14.10;81.80;;;;;;5076108;28;20588;-90
2022/07/17 05:50:46;;;;;;;6.57;2.50;;;14.10;82.00;;;;;;5076801;28;20183;-90
2022/07/17 05:53:12;;;;;;;11.03;2.77;;;14.20;82.20;;;;;;5076976;28;20198;-89
2022/07/17 05:55:37;;;;;;;6.53;2.43;;;14.30;82.00;;;;;;5094495;28;20174;-91
2022/07/17 05:58:03;;;;;;;8.53;3.13;;;14.40;81.00;;;;;;5093629;28;20171;-89
2022/07/17 06:00:29;;;;;;;9.43;3.00;;;14.40;80.50;;;;;;5075606;28;20213;-89
2022/07/17 06:02:55;;;;;;;10.30;2.37;;;14.50;80.80;;;;;;5093484;28;20201;-89
2022/07/17 06:05:21;;;;;;;11.20;2.97;;;14.50;80.80;;;;;;5093891;28;20249;-88
2022/07/17 06:07:47;;;;;;;6.10;2.27;;;14.50;81.20;;;;;;5075965;28;20224;-90
2022/07/17 06:10:12;;;;;;;11.93;2.57;;;14.60;81.30;;;;;;5075476;28;20180;-89
2022/07/17 06:12:38;;;;;;;14.83;3.10;;;14.60;80.90;;;;;;5093414;28;20191;-90
2022/07/17 06:15:04;;;;;;;13.40;3.13;;;14.70;81.00;;;;;;5075443;28;20174;-89
2022/07/17 06:17:30;;;;;;;10.13;3.00;;;14.70;81.00;;;;;;5093748;28;20175;-88
2022/07/17 06:19:55;;;;;;;8.03;2.47;;;14.60;80.80;;;;;;5075301;28;20187;-89
2022/07/17 06:22:21;;;;;;;10.33;3.00;;;14.70;81.00;;;;;;5075364;28;20239;-88
2022/07/17 06:24:47;;;;;;;8.47;2.90;;;14.60;81.10;;;;;;5075302;28;20178;-90
2022/07/17 06:27:13;;;;;;;7.57;2.43;;;14.60;81.00;;;;;;5093309;28;20178;-89
2022/07/17 06:29:39;;;;;;;11.50;2.50;;;14.50;81.40;;;;;;5075285;28;20179;-88
2022/07/17 06:32:05;;;;;;;15.43;3.00;;;14.60;81.50;;;;;;5076025;28;20546;-89
2022/07/17 06:34:30;;;;;;;12.87;2.90;;;14.60;81.50;;;;;;5080213;28;20170;-89
2022/07/17 06:36:56;;;;;;;10.63;2.53;;;14.80;81.60;;;;;;5079245;28;20175;-90
2022/07/17 06:39:21;;;;;;;8.10;2.27;;;14.80;80.70;;;;;;5097453;28;20182;-90
2022/07/17 06:41:47;;;;;;;10.90;3.50;;;14.80;80.40;;;;;;5079269;28;20226;-88
2022/07/17 06:44:12;;;;;;;9.77;2.50;;;14.90;80.50;;;;;;5097243;28;20224;-89
2022/07/17 06:46:38;;;;;;;7.20;2.57;;;14.90;80.50;;;;;;5078956;28;20729;-89
2022/07/17 06:49:04;;;;;;;9.53;2.83;;;14.90;79.90;;;;;;5079033;28;20181;-88
2022/07/17 06:51:29;;;;;;;9.20;3.00;;;15.00;79.80;;;;;;5096960;28;20170;-89
2022/07/17 06:53:55;;;;;;;6.80;2.20;;;15.00;80.40;;;;;;5078873;28;20677;-89
2022/07/17 06:56:21;;;;;;;7.30;2.90;;;15.20;80.50;;;;;;5078771;28;20174;-90
2022/07/17 06:58:46;;;;;;;14.97;3.27;;;15.30;80.30;;;;;;5078754;28;20189;-90
2022/07/17 07:01:12;;;;;;;11.43;2.87;;;15.30;80.10;;;;;;5078529;28;20199;-89
2022/07/17 07:03:37;;;;;;;6.57;2.20;;;15.40;79.70;;;;;;5079649;28;20171;-89
2022/07/17 07:06:03;;;;;;;7.27;2.80;;;15.50;79.50;;;;;;5078992;28;20702;-89
2022/07/17 07:08:28;;;;;;;9.30;2.60;;;15.50;78.60;;;;;;5078753;28;20178;-89
2022/07/17 07:10:54;;;;;;;9.93;2.47;;;15.50;78.70;;;;;;5097191;28;20672;-89
2022/07/17 07:13:20;;;;;;;9.50;2.60;;;15.70;79.00;;;;;;5078870;28;20739;-89
2022/07/17 07:15:46;;;;;;;13.07;3.30;;;15.80;79.50;;;;;;5078905;28;20179;-89
2022/07/17 07:18:11;;;;;;;12.27;2.60;;;16.00;78.70;;;;;;5096634;28;20227;-89
2022/07/17 07:20:37;;;;;;;14.00;3.95;;;16.10;79.00;;;;;;5078840;28;20199;-89
2022/07/17 07:23:02;;;;;;;7.80;2.40;;;16.20;78.40;;;;;;5078586;28;20186;-89
2022/07/17 07:25:28;;;;;;;8.90;3.22;;;16.30;78.20;;;;;;5078501;28;20216;-89
2022/07/17 07:27:54;;;;;;;8.38;1.98;;;16.30;78.10;;;;;;5096823;28;20177;-89
2022/07/17 07:30:19;;;;;;;10.32;2.80;;;16.30;77.00;;;;;;5078390;28;20178;-89
2022/07/17 07:32:45;;;;;;;4.78;1.85;;;16.40;77.30;;;;;;5078246;28;20684;-89
2022/07/17 07:35:11;;;;;;;7.15;1.80;;;16.70;76.80;;;;;;5096281;28;20232;-88
2022/07/17 07:37:37;;;;;;;11.80;2.53;;;16.80;74.90;;;;;;5078262;28;20182;-88
2022/07/17 07:40:04;;;;;;;6.40;1.98;;;17.00;74.10;;;;;;5078326;28;20226;-89
2022/07/17 07:42:30;;;;;;;10.65;2.50;;;17.00;73.00;;;;;;5078471;28;20198;-88
2022/07/17 07:44:55;;;;;;;10.60;2.80;;;17.20;73.60;;;;;;5095673;28;20228;-90
2022/07/17 07:47:21;;;;;;;9.95;2.05;;;17.10;73.80;;;;;;5080832;28;20166;-89
2022/07/17 07:49:47;;;;;;;12.75;2.65;;;17.30;74.20;;;;;;5078283;28;20175;-91
2022/07/17 07:52:13;;;;;;;7.50;2.28;;;17.40;73.70;;;;;;5078467;28;20727;-90
2022/07/17 07:54:38;;;;;;;8.10;1.95;;;17.60;72.80;;;;;;5078762;28;20174;-88
2022/07/17 07:57:04;;;;;;;12.93;2.50;;;17.70;71.50;;;;;;5096391;28;20174;-88
2022/07/17 07:59:33;;;;;;;7.22;2.08;;;17.40;73.00;;;;;;5079968;28;20323;-90
2022/07/17 08:01:59;;;;;;;10.02;2.42;;;17.20;72.40;;;;;;5077776;28;20202;-89
2022/07/17 08:04:25;;;;;;;9.20;2.30;;;17.30;73.70;;;;;;5078449;28;20255;-88
2022/07/17 08:06:51;;;;;;;8.52;2.08;;;17.20;73.50;;;;;;5077712;28;20631;-90
2022/07/17 08:09:16;;;;;;;7.30;1.95;;;17.20;72.90;;;;;;5077779;28;20175;-89
2022/07/17 08:11:42;;;;;;;10.98;1.95;;;17.50;73.30;;;;;;5096109;28;20226;-89
2022/07/17 08:14:08;;;;;;;12.35;2.30;;;17.70;71.80;;;;;;5077947;28;20175;-89
2022/07/17 08:16:33;;;;;;;4.90;1.90;;;17.70;70.40;;;;;;5077546;28;20178;-88
2022/07/17 08:18:59;;;;;;;6.80;2.03;;;17.60;70.00;;;;;;5077655;28;20179;-89
2022/07/17 08:21:25;;;;;;;11.90;2.40;;;17.70;69.40;;;;;;5077960;28;20281;-88
2022/07/17 08:23:50;;;;;;;10.00;1.85;;;17.80;69.40;;;;;;5077326;28;20175;-89
2022/07/17 08:26:16;;;;;;;6.80;2.10;;;17.80;68.00;;;;;;5077277;28;20173;-88
2022/07/17 08:28:41;;;;;;;4.68;1.88;;;18.10;67.90;;;;;;5095728;28;20179;-88
2022/07/17 08:31:07;;;;;;;7.93;1.65;;;18.20;67.40;;;;;;5077129;28;20180;-89
2022/07/17 08:33:33;;;;;;;4.88;1.40;;;18.50;67.60;;;;;;5095306;28;20194;-90
2022/07/17 08:35:58;;;;;;;4.45;1.90;;;18.50;66.40;;;;;;5077598;28;20258;-90
2022/07/17 08:38:24;;;;;;;8.90;2.10;;;18.40;66.50;;;;;;5077337;28;20663;-89
2022/07/17 08:40:52;;;;;;;5.63;1.40;;;18.20;67.30;;;;;;5077847;28;20201;-89
2022/07/17 08:43:18;;;;;;;11.77;2.03;;;18.00;67.00;;;;;;5095391;28;20190;-89
2022/07/17 08:45:45;;;;;;;11.10;2.08;;;17.60;68.70;;;;;;5094913;28;20163;-89
2022/07/17 08:48:13;;;;;;;8.23;1.80;;;17.90;69.50;;;;;;5076827;28;20174;-90
2022/07/17 08:50:39;;;;;;;6.82;1.88;;;18.20;68.20;;;;;;5076771;28;20175;-89
2022/07/17 08:53:05;;;;;;;9.10;1.85;;;18.50;67.60;;;;;;5077065;28;20238;-88
2022/07/17 08:55:31;;;;;;;8.15;1.63;;;18.70;65.10;;;;;;5096327;28;20173;-90
2022/07/17 08:57:57;;;;;;;12.02;1.67;;;18.90;64.40;;;;;;5076640;28;20728;-90
2022/07/17 09:00:24;;;;;;;6.60;1.88;;;18.80;63.50;;;;;;5076474;28;20221;-90
2022/07/17 09:03:09;;;;;;;4.93;1.75;;;19.00;64.70;;;;;;5096659;28;20213;-90
2022/07/17 09:05:39;;;;;;;8.85;1.70;;;18.80;64.60;;;;;;5094602;28;20155;-90
2022/07/17 09:08:07;;;;;;;8.05;1.98;;;19.40;64.40;;;;;;5076419;28;20656;-90
2022/07/17 09:10:38;;;;;;;8.70;2.30;;;19.20;64.50;;;;;;5076849;28;20224;-89
2022/07/17 09:13:23;;;;;;;8.30;1.85;;;18.70;65.10;;;;;;5076202;28;20691;-90
2022/07/17 09:15:53;;;;;;;7.95;2.08;;;18.30;65.90;;;;;;5076425;28;20207;-90
2022/07/17 09:18:20;;;;;;;8.93;1.75;;;18.70;64.10;;;;;;5076352;28;20163;-90
2022/07/17 09:20:58;;;;;;;6.25;1.70;;;18.70;65.20;;;;;;5076142;28;20278;-90
2022/07/17 09:23:26;;;;;;;4.60;1.58;;;19.20;64.50;;;;;;5094165;28;20188;-90
2022/07/17 09:25:55;;;;;;;9.80;2.03;;;19.60;61.70;;;;;;5076076;28;20571;-89
2022/07/17 09:28:21;;;;;;;8.85;2.22;;;19.10;63.00;;;;;;5076197;28;20174;-90
2022/07/17 09:30:52;;;;;;;6.90;1.40;;;19.40;65.10;;;;;;5076207;28;20232;-90
2022/07/17 09:33:23;;;;;;;5.57;1.45;;;19.70;63.30;;;;;;5094150;28;20612;-90
2022/07/17 09:35:55;;;;;;;4.90;1.45;;;19.70;62.30;;;;;;5076187;28;20713;-90
2022/07/17 09:38:32;;;;;;;5.57;1.75;;;20.00;62.10;;;;;;5076159;28;20683;-91
2022/07/17 09:41:11;;;;;;;3.92;1.52;;;20.30;59.80;;;;;;5094197;28;20205;-90
2022/07/17 09:44:00;;;;;;;5.68;1.35;;;20.40;59.80;;;;;;5076101;28;20181;-92
2022/07/17 09:46:31;;;;;;;3.83;1.67;;;20.50;58.90;;;;;;5076062;28;20162;-90
2022/07/17 09:49:07;;;;;;;5.25;1.73;;;19.90;60.90;;;;;;5077042;28;20162;-91
2022/07/17 09:51:38;;;;;;;3.97;1.20;;;19.70;62.40;;;;;;5093880;28;20190;-90
2022/07/17 09:54:06;;;;;;;6.70;1.70;;;20.10;61.30;;;;;;5076162;28;20163;-90
2022/07/17 09:56:35;;;;;;;8.55;1.58;;;20.30;61.50;;;;;;5094244;28;20182;-90
2022/07/17 09:59:07;;;;;;;4.43;1.30;;;20.50;59.40;;;;;;5075655;28;20277;-90
2022/07/17 10:01:35;;;;;;;4.85;1.30;;;20.80;59.20;;;;;;5076051;28;20218;-90
2022/07/17 10:04:01;;;;;;;4.68;1.95;;;21.20;58.60;;;;;;5075689;28;20174;-91
2022/07/17 10:06:27;;;;;;;4.65;1.35;;;21.30;58.40;;;;;;5093485;28;20257;-92
2022/07/17 10:08:54;;;;;;;8.15;1.35;;;21.30;58.50;;;;;;5075501;28;20167;-91
2022/07/17 10:11:22;;;;;;;4.70;1.55;;;21.20;59.10;;;;;;5075395;28;20178;-90
2022/07/17 10:13:49;;;;;;;5.30;1.73;;;21.30;57.60;;;;;;5075468;28;20649;-90
2022/07/17 10:16:24;;;;;;;8.15;1.98;;;21.30;57.10;;;;;;5093539;28;20173;-91
2022/07/17 10:18:52;;;;;;;6.20;2.00;;;21.20;58.60;;;;;;5075575;28;20700;-89
2022/07/17 10:21:21;;;;;;;5.28;1.63;;;21.00;59.40;;;;;;5075397;28;20715;-90
2022/07/17 10:24:04;;;;;;;6.30;1.55;;;21.20;59.50;;;;;;5076846;28;20182;-89
2022/07/17 10:26:36;;;;;;;8.75;2.47;;;21.40;57.00;;;;;;5076476;28;20163;-91
2022/07/17 10:29:03;;;;;;;6.57;1.58;;;21.70;57.60;;;;;;5076357;28;20175;-91
2022/07/17 10:31:30;;;;;;;3.80;1.38;;;21.50;57.20;;;;;;5075696;28;20179;-91
2022/07/17 10:33:57;;;;;;;4.80;1.70;;;20.80;56.90;;;;;;5075802;28;20212;-92
2022/07/17 10:36:42;;;;;;;4.25;1.38;;;20.70;61.70;;;;;;5075839;28;20178;-90
2022/07/17 10:39:20;;;;;;;3.88;1.40;;;21.40;57.10;;;;;;5085001;28;20216;-91
2022/07/17 10:41:59;;;;;;;6.40;1.83;;;21.10;58.10;;;;;;5078718;28;20293;-91
2022/07/17 10:44:31;;;;;;;6.78;2.15;;;21.50;59.40;;;;;;5076928;28;20162;-91
2022/07/17 10:46:58;;;;;;;4.35;1.60;;;21.20;59.00;;;;;;5075723;28;20167;-92
2022/07/17 10:49:25;;;;;;;5.63;1.35;;;21.10;58.00;;;;;;5075484;28;20649;-92
2022/07/17 10:51:51;;;;;;;7.65;1.67;;;21.50;58.80;;;;;;5075201;28;20203;-91
2022/07/17 10:54:18;;;;;;;7.18;2.10;;;21.00;56.50;;;;;;5079223;28;20170;-92
2022/07/17 10:56:46;;;;;;;3.42;1.30;;;20.70;59.00;;;;;;5078805;28;20173;-89
2022/07/17 10:59:12;;;;;;;5.05;1.70;;;20.40;60.20;;;;;;5093170;28;20190;-88
2022/07/17 11:01:38;;;;;;;4.43;1.63;;;21.00;60.60;;;;;;5075302;28;20215;-88
2022/07/17 11:04:04;;;;;;;6.72;1.60;;;21.10;59.70;;;;;;5076373;28;20227;-88
2022/07/17 11:06:35;;;;;;;5.22;1.50;;;21.70;57.20;;;;;;5076260;28;20220;-90
2022/07/17 11:09:04;;;;;;;6.63;1.92;;;22.20;54.70;;;;;;5093208;28;20206;-90
2022/07/17 11:11:42;;;;;;;8.98;1.25;;;22.20;54.80;;;;;;5076638;28;20181;-90
2022/07/17 11:14:25;;;;;;;5.53;1.55;;;22.30;55.80;;;;;;5094575;28;20174;-90
2022/07/17 11:16:55;;;;;;;8.02;1.42;;;22.80;54.60;;;;;;5093431;28;20286;-91
2022/07/17 11:19:24;;;;;;;3.72;1.30;;;22.90;55.50;;;;;;5076650;28;20170;-91
2022/07/17 11:21:52;;;;;;;3.15;1.33;;;22.10;56.20;;;;;;5078946;28;20221;-90
2022/07/17 11:24:18;;;;;;;4.13;1.27;;;20.80;59.80;;;;;;5078948;28;20171;-90
2022/07/17 11:26:44;;;;;;;5.13;1.45;;;21.00;60.70;;;;;;5078822;28;20166;-90
2022/07/17 11:29:11;;;;;;;5.28;1.30;;;21.90;56.60;;;;;;5078555;28;20709;-90
2022/07/17 11:31:36;;;;;;;9.63;1.88;;;22.30;57.40;;;;;;5078519;28;20289;-92
2022/07/17 11:34:09;;;;;;;2.95;1.10;;;22.90;55.00;;;;;;5079823;28;20613;-90
2022/07/17 11:36:35;;;;;;;7.93;1.83;;;22.70;53.20;;;;;;5097238;28;20542;-89
2022/07/17 11:39:19;;;;;;;5.85;1.65;;;22.50;57.20;;;;;;5078476;28;20179;-89
2022/07/17 11:41:48;;;;;;;6.05;1.20;;;22.90;53.10;;;;;;5079420;28;20206;-89
2022/07/17 11:44:15;;;;;;;3.47;1.42;;;22.30;55.10;;;;;;5098208;28;20224;-88
2022/07/17 11:46:43;;;;;;;6.07;1.75;;;22.50;57.40;;;;;;5096558;28;20203;-89
2022/07/17 11:49:09;;;;;;;5.65;1.33;;;23.00;54.40;;;;;;5078313;28;20644;-90
2022/07/17 11:51:44;;;;;;;5.47;1.60;;;23.10;52.70;;;;;;5078935;28;20217;-89
2022/07/17 11:54:15;;;;;;;2.95;1.20;;;22.50;54.00;;;;;;5078095;28;20686;-90
2022/07/17 11:56:50;;;;;;;5.50;1.17;;;22.30;53.60;;;;;;5096770;28;20179;-89
2022/07/17 11:59:26;;;;;;;6.18;1.45;;;22.70;55.00;;;;;;5097659;28;20189;-90
2022/07/17 12:01:51;;;;;;;4.45;1.20;;;23.10;54.50;;;;;;5096224;28;20227;-90
2022/07/17 12:04:17;;;;;;;2.83;1.10;;;22.70;54.30;;;;;;5077714;28;20608;-90
2022/07/17 12:06:45;;;;;;;2.55;1.27;;;22.20;53.80;;;;;;5077923;28;20182;-90
2022/07/17 12:09:11;;;;;;;2.85;0.98;;;22.80;53.70;;;;;;5078511;28;20174;-90
2022/07/17 12:11:50;;;;;;;2.13;1.13;;;22.70;52.40;;;;;;5078522;28;20197;-91
2022/07/17 12:14:16;;;;;;;4.82;1.10;;;23.30;51.80;;;;;;5077850;28;20282;-90
2022/07/17 12:16:42;;;;;;;4.65;1.10;;;23.40;51.20;;;;;;5077993;28;20274;-89
2022/07/17 12:19:19;;;;;;;2.78;1.30;;;23.90;50.00;;;;;;5078341;28;20185;-89
2022/07/17 12:22:04;;;;;;;6.13;1.48;;;23.70;49.10;;;;;;5078433;28;20710;-92
2022/07/17 12:24:41;;;;;;;7.63;1.38;;;23.20;49.90;;;;;;5078959;28;20175;-89
2022/07/17 12:27:09;;;;;;;4.18;1.35;;;23.60;50.30;;;;;;5079870;28;20177;-89
2022/07/17 12:29:35;;;;;;;3.30;1.13;;;23.50;51.60;;;;;;5076768;28;20543;-88
2022/07/17 12:32:06;;;;;;;3.70;1.00;;;23.70;49.10;;;;;;5078108;28;20198;-90
2022/07/17 12:34:32;;;;;;;5.50;1.30;;;24.00;52.00;;;;;;5078855;28;20175;-90
2022/07/17 12:36:57;;;;;;;3.67;1.15;;;23.30;51.30;;;;;;5078753;28;20220;-90
2022/07/17 12:39:23;;;;;;;1.73;1.10;;;23.20;49.70;;;;;;5095966;28;20167;-90
2022/07/17 12:41:48;;;;;;;2.30;1.17;;;23.70;48.30;;;;;;5077713;28;20216;-90
2022/07/17 12:44:14;;;;;;;3.53;1.10;;;22.80;49.40;;;;;;5096822;28;20183;-90